Time;durP1;ratioP1;P1;durP2;ratioP2;P2;SDS_P1;SDS_P2;PMS_P1;PMS_P2;Temp;Humidity;BMP_temperature;BMP_pressure;BME280_temperature;BME280_humidity;BME280_pressure;Samples;Min_cycle;Max_cycle;Signal;HPM_P1;HPM_P2
2023/03/05 00:01:50;;;;;;;5.93;1.10;;;4.70;99.90;;;;;;5070314;28;20119;-94
2023/03/05 00:04:17;;;;;;;4.80;1.25;;;4.70;99.90;;;;;;5082203;28;20044;-94
2023/03/05 00:06:43;;;;;;;5.38;1.27;;;4.60;99.90;;;;;;5081090;28;20426;-95
2023/03/05 00:09:10;;;;;;;4.10;0.90;;;3.20;99.90;;;;;;5085901;28;20044;-94
2023/03/05 00:11:35;;;;;;;9.07;1.42;;;4.70;99.90;;;;;;5088143;28;20547;-94
2023/03/05 00:14:05;;;;;;;3.13;1.33;;;4.70;99.90;;;;;;5066083;28;20044;-94
2023/03/05 00:16:31;;;;;;;6.43;1.60;;;5.00;99.90;;;;;;5091403;28;20072;-93
2023/03/05 00:18:58;;;;;;;4.25;1.20;;;4.30;99.90;;;;;;5081825;28;20095;-94
2023/03/05 00:21:28;;;;;;;6.57;1.50;;;4.80;99.90;;;;;;5086087;28;20054;-94
2023/03/05 00:23:55;;;;;;;8.52;1.40;;;4.30;99.90;;;;;;5102196;28;20052;-93
2023/03/05 00:26:24;;;;;;;5.95;1.52;;;4.70;99.90;;;;;;5101130;28;20181;-94
2023/03/05 00:28:51;;;;;;;7.30;1.38;;;5.00;99.90;;;;;;5101029;28;20048;-93
2023/03/05 00:31:19;;;;;;;8.07;1.58;;;4.60;99.90;;;;;;5098969;28;20126;-94
2023/03/05 00:33:45;;;;;;;7.22;1.50;;;4.80;99.90;;;;;;5100644;28;20130;-94
2023/03/05 00:36:11;;;;;;;6.35;1.40;;;4.50;99.90;;;;;;5099155;28;20506;-95
2023/03/05 00:38:37;;;;;;;7.45;1.67;;;4.80;99.90;;;;;;5100764;28;20044;-94
2023/03/05 00:41:03;;;;;;;12.07;2.00;;;4.90;99.90;;;;;;5083855;28;20039;-94
2023/03/05 00:43:29;;;;;;;4.88;1.55;;;4.70;99.90;;;;;;5099486;28;20048;-94
2023/03/05 00:45:55;;;;;;;5.13;1.40;;;;;;;;;;5099534;28;20040;-94
2023/03/05 00:48:21;;;;;;;6.47;1.73;;;4.90;99.90;;;;;;5096844;28;20035;-94
2023/03/05 00:50:48;;;;;;;6.50;1.20;;;4.60;99.90;;;;;;5094872;28;20249;-94
2023/03/05 00:53:14;;;;;;;6.20;1.63;;;5.00;99.90;;;;;;5097232;28;20051;-94
2023/03/05 00:55:40;;;;;;;6.75;1.33;;;5.00;99.90;;;;;;5099591;28;20427;-94
2023/03/05 00:58:05;;;;;;;9.50;1.63;;;5.00;99.90;;;;;;5098673;28;20035;-94
2023/03/05 01:00:32;;;;;;;7.32;1.10;;;4.60;99.90;;;;;;5118066;28;20504;-94
2023/03/05 01:02:58;;;;;;;7.78;1.40;;;5.00;99.90;;;;;;5094750;28;20124;-93
2023/03/05 01:05:23;;;;;;;8.52;1.00;;;4.70;99.90;;;;;;5100959;28;20044;-93
2023/03/05 01:07:54;;;;;;;7.82;1.20;;;4.70;99.90;;;;;;5098498;28;20481;-93
2023/03/05 01:10:20;;;;;;;6.78;1.15;;;5.00;99.90;;;;;;5099310;28;20108;-93
2023/03/05 01:12:46;;;;;;;6.10;1.02;;;5.10;99.90;;;;;;5073735;28;20039;-94
2023/03/05 01:15:12;;;;;;;8.05;1.20;;;3.70;99.90;;;;;;5082528;28;20134;-94
2023/03/05 01:17:38;;;;;;;5.53;1.08;;;4.80;99.90;;;;;;5073816;28;20044;-94
2023/03/05 01:20:07;;;;;;;6.60;1.30;;;5.10;99.90;;;;;;5062204;28;20067;-95
2023/03/05 01:22:34;;;;;;;7.82;1.33;;;6.00;99.90;;;;;;5103172;28;20039;-96
2023/03/05 01:25:03;;;;;;;5.80;1.67;;;4.80;99.90;;;;;;5078348;28;20030;-94
2023/03/05 01:27:28;;;;;;;4.40;1.00;;;3.80;99.90;;;;;;5095372;28;20043;-94
2023/03/05 01:29:54;;;;;;;5.68;1.13;;;4.70;99.90;;;;;;5081051;28;20038;-94
2023/03/05 01:32:20;;;;;;;5.97;1.20;;;4.70;99.90;;;;;;5095984;28;20036;-95
2023/03/05 01:34:46;;;;;;;4.18;1.30;;;4.70;99.90;;;;;;5088394;28;20039;-95
2023/03/05 01:37:12;;;;;;;7.05;1.20;;;5.10;99.90;;;;;;5079938;28;20046;-95
2023/03/05 01:39:38;;;;;;;4.43;1.38;;;4.40;99.90;;;;;;5079864;28;20040;-95
2023/03/05 01:42:04;;;;;;;4.78;0.93;;;4.90;99.90;;;;;;5085815;28;20569;-95
2023/03/05 01:44:32;;;;;;;6.80;0.90;;;4.40;99.90;;;;;;5087975;28;20063;-95
2023/03/05 01:46:59;;;;;;;3.53;0.88;;;5.00;99.90;;;;;;5098394;28;20024;-95
2023/03/05 01:49:44;;;;;;;3.83;0.68;;;5.00;99.90;;;;;;5083180;28;20040;-95
2023/03/05 01:52:16;;;;;;;3.40;0.75;;;5.00;99.90;;;;;;5088941;28;20035;-95
2023/03/05 01:54:47;;;;;;;4.00;0.90;;;4.70;99.90;;;;;;5087503;28;20097;-94
2023/03/05 01:57:33;;;;;;;3.22;1.05;;;5.00;99.90;;;;;;5102740;28;20482;-94
2023/03/05 02:00:06;;;;;;;2.85;1.00;;;5.00;99.90;;;;;;5102659;28;20051;-95
2023/03/05 02:02:32;;;;;;;2.95;1.25;;;4.60;99.90;;;;;;5103561;28;20365;-95
2023/03/05 02:05:04;;;;;;;3.90;0.90;;;4.80;99.90;;;;;;5086558;28;20545;-94
2023/03/05 02:07:31;;;;;;;3.03;1.40;;;4.40;99.90;;;;;;5100551;28;20057;-94
2023/03/05 02:09:57;;;;;;;4.53;0.73;;;5.10;99.90;;;;;;5101868;28;20063;-94
2023/03/05 02:12:23;;;;;;;3.10;0.60;;;5.00;99.90;;;;;;5101121;28;20567;-94
2023/03/05 02:14:57;;;;;;;1.92;0.80;;;3.80;99.90;;;;;;5102360;28;20043;-94
2023/03/05 02:17:27;;;;;;;2.80;1.05;;;3.10;99.90;;;;;;5095823;28;20046;-93
2023/03/05 02:20:01;;;;;;;2.35;0.90;;;4.80;99.90;;;;;;5082859;28;20066;-94
2023/03/05 02:22:27;;;;;;;3.83;1.30;;;4.30;99.90;;;;;;5110917;28;20039;-95
2023/03/05 02:24:53;;;;;;;1.75;0.70;;;4.50;99.90;;;;;;5085028;28;20043;-95
2023/03/05 02:27:27;;;;;;;5.47;1.20;;;4.60;99.90;;;;;;5087320;28;20079;-95
2023/03/05 02:29:53;;;;;;;5.15;1.20;;;;;;;;;;5102309;28;20099;-94
2023/03/05 02:32:19;;;;;;;2.17;0.93;;;4.40;99.90;;;;;;5105094;28;20040;-94
2023/03/05 02:34:46;;;;;;;4.43;1.05;;;5.60;99.90;;;;;;5103509;28;20040;-95
2023/03/05 02:37:14;;;;;;;8.68;2.15;;;4.40;99.90;;;;;;5114893;28;20063;-95
2023/03/05 02:39:40;;;;;;;4.05;1.00;;;4.60;99.90;;;;;;5090602;28;20038;-94
2023/03/05 02:42:07;;;;;;;4.80;0.90;;;4.70;99.90;;;;;;5089748;28;20103;-94
2023/03/05 02:44:35;;;;;;;5.60;1.20;;;4.20;99.90;;;;;;5067212;28;20070;-94
2023/03/05 02:47:01;;;;;;;6.53;1.10;;;4.50;99.90;;;;;;5086036;28;20099;-95
2023/03/05 02:49:27;;;;;;;1.75;0.82;;;4.50;99.90;;;;;;5103517;28;20075;-94
2023/03/05 02:51:59;;;;;;;3.22;1.08;;;4.50;99.90;;;;;;5103802;28;20143;-95
2023/03/05 02:54:25;;;;;;;9.45;1.35;;;4.20;99.90;;;;;;5120728;28;20116;-95
2023/03/05 02:56:51;;;;;;;3.38;1.00;;;4.80;99.90;;;;;;5102746;28;20031;-95
2023/03/05 02:59:17;;;;;;;4.07;1.20;;;4.80;99.90;;;;;;5073791;28;20040;-94
2023/03/05 03:01:43;;;;;;;4.15;1.15;;;4.30;99.90;;;;;;5108122;28;20043;-94
2023/03/05 03:04:09;;;;;;;5.22;1.20;;;4.80;99.90;;;;;;5107340;28;20039;-94
2023/03/05 03:06:35;;;;;;;3.15;1.13;;;3.60;99.90;;;;;;5102482;28;20039;-95
2023/03/05 03:09:01;;;;;;;3.10;1.20;;;6.70;99.90;;;;;;5104981;28;20095;-95
2023/03/05 03:11:27;;;;;;;5.15;0.95;;;4.60;99.90;;;;;;5105394;28;20047;-95
2023/03/05 03:13:53;;;;;;;6.53;1.23;;;4.80;99.90;;;;;;5103626;28;20043;-94
2023/03/05 03:16:19;;;;;;;5.55;1.20;;;4.60;99.90;;;;;;5084844;28;20047;-95
2023/03/05 03:18:47;;;;;;;4.95;0.98;;;5.50;99.90;;;;;;5103489;28;20039;-94
2023/03/05 03:21:19;;;;;;;3.85;1.00;;;4.60;99.90;;;;;;5069103;28;20130;-94
2023/03/05 03:23:45;;;;;;;2.92;1.13;;;4.90;99.90;;;;;;5085168;28;20047;-94
2023/03/05 03:26:12;;;;;;;5.10;1.40;;;4.50;99.90;;;;;;5119221;28;20492;-94
2023/03/05 03:28:38;;;;;;;4.57;1.10;;;4.90;99.90;;;;;;5090859;28;20059;-95
2023/03/05 03:31:04;;;;;;;3.97;0.98;;;4.80;99.90;;;;;;5067454;28;20048;-93
2023/03/05 03:33:32;;;;;;;2.80;0.98;;;4.90;99.90;;;;;;5089139;28;20063;-94
2023/03/05 03:35:58;;;;;;;7.57;1.00;;;4.20;99.90;;;;;;5102773;28;20054;-95
2023/03/05 03:38:25;;;;;;;2.42;1.77;;;4.30;99.90;;;;;;5101541;28;20039;-94
2023/03/05 03:40:51;;;;;;;4.88;0.88;;;4.30;99.90;;;;;;5106509;28;20046;-94
2023/03/05 03:43:17;;;;;;;1.55;0.93;;;5.50;99.90;;;;;;5090705;28;20072;-94
2023/03/05 03:45:43;;;;;;;3.35;0.90;;;4.70;99.90;;;;;;5105701;28;20140;-94
2023/03/05 03:48:10;;;;;;;9.27;0.98;;;4.30;99.90;;;;;;5098357;28;20044;-94
2023/03/05 03:50:40;;;;;;;5.22;1.00;;;4.50;99.90;;;;;;5106006;28;20043;-94
2023/03/05 03:53:07;;;;;;;6.93;2.25;;;4.40;99.90;;;;;;5106218;28;20097;-94
2023/03/05 03:55:33;;;;;;;2.35;1.20;;;3.90;99.90;;;;;;5106950;28;20058;-94
2023/03/05 03:58:00;;;;;;;3.78;1.00;;;4.30;99.90;;;;;;5102769;28;20043;-96
2023/03/05 04:00:25;;;;;;;4.40;1.25;;;4.60;99.90;;;;;;5087425;28;20040;-95
2023/03/05 04:03:01;;;;;;;4.40;1.17;;;4.20;99.90;;;;;;5102194;28;20042;-95
2023/03/05 04:05:27;;;;;;;2.05;0.85;;;4.60;99.90;;;;;;5103864;28;20020;-95
2023/03/05 04:07:54;;;;;;;2.45;0.95;;;4.70;99.90;;;;;;5091624;28;20081;-95
2023/03/05 04:10:20;;;;;;;5.32;1.10;;;4.60;99.90;;;;;;5082624;28;20105;-95
2023/03/05 04:12:47;;;;;;;7.00;1.27;;;4.30;99.90;;;;;;5081893;28;20569;-95
2023/03/05 04:15:13;;;;;;;2.70;1.13;;;4.20;99.90;;;;;;5081167;28;20457;-95
2023/03/05 04:17:39;;;;;;;6.93;1.30;;;4.50;99.90;;;;;;5067565;28;20082;-95
2023/03/05 04:20:08;;;;;;;3.75;0.77;;;2.90;99.90;;;;;;5082648;28;20048;-94
2023/03/05 04:22:34;;;;;;;5.18;0.90;;;4.20;99.90;;;;;;5084994;28;20062;-94
2023/03/05 04:25:05;;;;;;;4.40;1.15;;;4.60;99.90;;;;;;5070217;28;20040;-95
2023/03/05 04:27:33;;;;;;;7.50;1.27;;;4.10;99.90;;;;;;5087091;28;20051;-95
2023/03/05 04:29:59;;;;;;;3.67;1.10;;;3.60;99.90;;;;;;5089829;28;20044;-94
2023/03/05 04:32:34;;;;;;;8.77;0.93;;;3.90;99.90;;;;;;5092238;28;20075;-95
2023/03/05 04:35:00;;;;;;;2.67;0.88;;;4.30;99.90;;;;;;5086222;28;20039;-94
2023/03/05 04:37:29;;;;;;;5.68;1.45;;;4.00;99.90;;;;;;5071471;28;20083;-95
2023/03/05 04:39:55;;;;;;;3.00;0.80;;;4.00;99.90;;;;;;5089196;28;20043;-95
2023/03/05 04:42:21;;;;;;;5.72;1.42;;;4.20;99.90;;;;;;5107169;28;20043;-95
2023/03/05 04:44:50;;;;;;;4.22;0.90;;;4.00;99.90;;;;;;5090307;28;20040;-95
2023/03/05 04:47:17;;;;;;;2.83;0.77;;;3.60;99.90;;;;;;5076075;28;20051;-94
2023/03/05 04:49:44;;;;;;;4.18;1.05;;;2.50;99.90;;;;;;5087641;28;20044;-93
2023/03/05 04:52:11;;;;;;;5.47;1.17;;;2.50;99.90;;;;;;5068330;28;20094;-94
2023/03/05 04:54:38;;;;;;;4.43;1.17;;;3.90;99.90;;;;;;5088409;28;20032;-93
2023/03/05 04:57:04;;;;;;;4.35;1.20;;;4.00;99.90;;;;;;5105285;28;20047;-94
2023/03/05 04:59:31;;;;;;;4.43;1.10;;;4.10;99.90;;;;;;5103981;28;20031;-94
2023/03/05 05:01:57;;;;;;;2.78;1.02;;;4.00;99.90;;;;;;5094485;28;20133;-93
2023/03/05 05:04:29;;;;;;;5.65;1.13;;;3.70;99.90;;;;;;5105845;28;20046;-94
2023/03/05 05:06:56;;;;;;;2.60;0.95;;;4.20;99.90;;;;;;5104945;28;20121;-94
2023/03/05 05:09:37;;;;;;;4.55;1.20;;;2.30;99.90;;;;;;5122023;28;20047;-93
2023/03/05 05:12:03;;;;;;;6.25;1.40;;;4.30;99.90;;;;;;5102341;28;20086;-93
2023/03/05 05:14:29;;;;;;;4.95;1.20;;;4.20;99.90;;;;;;5103313;28;20130;-93
2023/03/05 05:16:55;;;;;;;8.02;1.00;;;4.50;99.90;;;;;;5071755;28;20079;-92
2023/03/05 05:19:24;;;;;;;4.88;1.25;;;4.10;99.90;;;;;;5093804;28;20073;-93
2023/03/05 05:21:51;;;;;;;11.20;1.38;;;3.80;99.90;;;;;;5104730;28;20023;-93
2023/03/05 05:24:20;;;;;;;7.68;1.30;;;6.10;99.90;;;;;;5104789;28;20047;-93
2023/03/05 05:26:46;;;;;;;5.03;1.17;;;3.80;99.90;;;;;;5105350;28;20070;-92
2023/03/05 05:29:12;;;;;;;3.72;1.10;;;3.80;99.90;;;;;;5082956;28;20032;-93
2023/03/05 05:31:38;;;;;;;5.70;1.00;;;4.20;99.90;;;;;;5097170;28;20035;-94
2023/03/05 05:34:04;;;;;;;3.50;1.20;;;3.20;99.90;;;;;;5087512;28;20050;-94
2023/03/05 05:36:30;;;;;;;5.35;1.05;;;4.20;99.90;;;;;;5104456;28;20554;-94
2023/03/05 05:38:56;;;;;;;3.42;1.00;;;3.50;99.90;;;;;;5087117;28;20044;-93
2023/03/05 05:41:22;;;;;;;3.15;1.20;;;3.90;99.90;;;;;;5118518;27;20046;-94
2023/03/05 05:43:48;;;;;;;6.30;1.52;;;3.60;99.90;;;;;;5087632;28;20102;-95
2023/03/05 05:46:18;;;;;;;3.53;1.10;;;4.00;99.90;;;;;;5104031;28;20047;-94
2023/03/05 05:48:44;;;;;;;6.63;1.30;;;3.30;99.90;;;;;;5104678;28;20104;-94
2023/03/05 05:51:14;;;;;;;3.95;1.02;;;4.60;99.90;;;;;;5101528;28;20047;-94
2023/03/05 05:53:41;;;;;;;6.07;1.48;;;3.80;99.90;;;;;;5102988;28;20028;-94
2023/03/05 05:56:10;;;;;;;2.30;0.93;;;3.40;99.90;;;;;;5104530;28;20036;-95
2023/03/05 05:58:38;;;;;;;4.50;0.98;;;5.00;99.90;;;;;;5105257;28;20044;-94
2023/03/05 06:01:16;;;;;;;5.35;1.05;;;4.60;99.90;;;;;;5085465;28;20031;-93
2023/03/05 06:03:42;;;;;;;4.05;1.00;;;3.50;99.90;;;;;;5103687;28;20075;-94
2023/03/05 06:06:14;;;;;;;2.45;1.02;;;2.00;99.90;;;;;;5104181;28;20062;-94
2023/03/05 06:08:43;;;;;;;4.20;0.93;;;3.00;99.90;;;;;;5072546;28;20048;-93
2023/03/05 06:11:11;;;;;;;3.33;1.00;;;3.00;99.90;;;;;;5096111;28;20064;-94
2023/03/05 06:13:38;;;;;;;1.90;1.17;;;3.50;99.90;;;;;;5086082;28;20284;-94
2023/03/05 06:16:07;;;;;;;6.78;1.10;;;3.70;99.90;;;;;;5100231;28;20032;-94
2023/03/05 06:18:34;;;;;;;4.53;0.82;;;2.50;99.90;;;;;;5104197;28;20040;-94
2023/03/05 06:21:07;;;;;;;5.70;1.40;;;4.40;99.90;;;;;;5104476;28;20047;-94
2023/03/05 06:23:34;;;;;;;4.70;1.00;;;3.20;99.90;;;;;;5099233;28;20122;-94
2023/03/05 06:26:03;;;;;;;3.20;1.00;;;3.30;99.90;;;;;;5088002;28;20040;-93
2023/03/05 06:28:30;;;;;;;2.97;0.95;;;3.60;99.90;;;;;;5098090;28;20032;-94
2023/03/05 06:31:04;;;;;;;2.67;0.80;;;3.40;99.90;;;;;;5102212;28;20047;-94
2023/03/05 06:33:31;;;;;;;;;;;3.40;99.90;;;;;;5106389;28;20046;-94
2023/03/05 06:35:58;;;;;;;3.22;1.15;;;3.50;99.90;;;;;;5123167;28;19920;-93
2023/03/05 06:38:24;;;;;;;5.07;1.00;;;3.80;99.90;;;;;;5089261;28;20518;-94
2023/03/05 06:40:50;;;;;;;4.65;1.33;;;3.60;99.90;;;;;;5105413;28;20030;-93
2023/03/05 06:43:16;;;;;;;4.07;1.20;;;3.90;99.90;;;;;;5085108;28;20138;-94
2023/03/05 06:45:43;;;;;;;2.90;0.88;;;3.80;99.90;;;;;;5070099;28;20048;-94
2023/03/05 06:48:10;;;;;;;5.78;1.02;;;3.70;99.90;;;;;;5067189;28;20606;-94
2023/03/05 06:50:39;;;;;;;9.55;0.95;;;3.90;99.90;;;;;;5085964;28;20047;-95
2023/03/05 06:53:05;;;;;;;2.70;0.85;;;4.10;99.90;;;;;;5067002;28;20040;-95
2023/03/05 06:55:38;;;;;;;2.38;0.80;;;3.70;99.90;;;;;;5104007;28;20046;-95
2023/03/05 06:58:04;;;;;;;4.07;0.77;;;3.50;99.90;;;;;;5086387;28;20051;-95
2023/03/05 07:00:30;;;;;;;3.25;0.77;;;3.70;99.90;;;;;;5087661;28;20112;-96
2023/03/05 07:02:56;;;;;;;5.35;1.02;;;3.70;99.90;;;;;;5070983;28;20067;-94
2023/03/05 07:05:25;;;;;;;5.47;1.02;;;3.90;99.90;;;;;;5069295;28;20044;-95
2023/03/05 07:07:51;;;;;;;2.80;0.90;;;4.20;99.90;;;;;;5108964;28;20335;-94
2023/03/05 07:10:18;;;;;;;4.80;0.93;;;4.40;99.90;;;;;;5091700;28;20078;-95
2023/03/05 07:12:46;;;;;;;7.38;1.10;;;4.70;99.90;;;;;;5107786;28;20141;-94
2023/03/05 07:15:12;;;;;;;1.67;0.95;;;6.20;99.90;;;;;;5082588;28;20059;-94
2023/03/05 07:17:38;;;;;;;9.65;1.70;;;4.10;99.90;;;;;;5107224;28;20103;-95
2023/03/05 07:20:05;;;;;;;4.57;1.10;;;4.60;99.90;;;;;;5101552;28;20082;-93
2023/03/05 07:22:31;;;;;;;6.63;1.30;;;4.20;99.90;;;;;;5105493;28;20122;-93
2023/03/05 07:24:57;;;;;;;4.32;1.00;;;4.20;99.90;;;;;;5082356;28;20044;-93
2023/03/05 07:27:24;;;;;;;5.72;1.25;;;4.20;99.90;;;;;;5088573;28;20038;-94
2023/03/05 07:29:53;;;;;;;5.13;1.00;;;4.30;99.90;;;;;;5105766;28;20055;-95
2023/03/05 07:32:19;;;;;;;2.55;0.80;;;3.50;99.90;;;;;;5088277;28;20050;-95
2023/03/05 07:34:47;;;;;;;3.28;1.00;;;5.10;99.90;;;;;;5088281;28;20512;-94
2023/03/05 07:37:13;;;;;;;5.55;1.55;;;3.20;99.90;;;;;;5082605;23;20216;-80
2023/03/05 07:39:39;;;;;;;5.15;1.33;;;4.40;99.90;;;;;;5004541;28;20548;-76
2023/03/05 07:42:04;;;;;;;8.65;1.50;;;5.10;99.90;;;;;;5019851;28;20065;-76
2023/03/05 07:44:30;;;;;;;6.18;1.33;;;4.70;99.90;;;;;;4987761;28;20040;-80
2023/03/05 07:46:56;;;;;;;6.22;1.60;;;5.20;99.90;;;;;;4986261;28;20045;-77
2023/03/05 07:49:22;;;;;;;4.03;1.00;;;5.00;99.90;;;;;;5019992;28;20260;-77
2023/03/05 07:51:48;;;;;;;3.72;1.38;;;5.00;99.90;;;;;;5004545;28;20384;-76
2023/03/05 07:54:14;;;;;;;3.47;0.90;;;5.30;99.90;;;;;;5003841;28;20209;-77
2023/03/05 07:56:40;;;;;;;3.92;0.93;;;5.00;99.90;;;;;;4998819;28;20036;-77
2023/03/05 07:59:10;;;;;;;3.22;0.70;;;5.40;99.90;;;;;;4997408;28;20029;-78
2023/03/05 08:01:36;;;;;;;3.22;1.00;;;5.60;99.90;;;;;;5004046;28;20025;-79
2023/03/05 08:04:03;;;;;;;1.35;0.80;;;5.60;99.90;;;;;;5020610;28;20096;-79
2023/03/05 08:06:29;;;;;;;4.53;1.00;;;5.90;99.90;;;;;;5004330;28;20093;-77
2023/03/05 08:08:57;;;;;;;5.35;1.30;;;5.70;99.90;;;;;;5000473;28;20321;-76
2023/03/05 08:11:23;;;;;;;3.08;1.00;;;5.80;99.90;;;;;;5007194;28;20065;-76
2023/03/05 08:13:49;;;;;;;4.38;0.88;;;5.70;99.90;;;;;;5017563;28;20060;-79
2023/03/05 08:16:17;;;;;;;4.75;1.23;;;5.70;99.90;;;;;;4982990;28;20034;-78
2023/03/05 08:18:44;;;;;;;7.40;1.10;;;6.00;99.90;;;;;;4984729;28;20042;-78
2023/03/05 08:21:29;;;;;;;6.03;1.17;;;6.10;99.90;;;;;;4997633;28;20084;-78
2023/03/05 08:24:00;;;;;;;6.63;1.60;;;5.90;99.90;;;;;;4990479;28;20365;-77
2023/03/05 08:26:27;;;;;;;5.07;1.63;;;6.10;99.90;;;;;;4999572;28;20344;-77
2023/03/05 08:28:53;;;;;;;6.18;0.90;;;5.90;99.90;;;;;;5002055;28;20052;-78
2023/03/05 08:31:21;;;;;;;9.50;1.38;;;5.70;99.90;;;;;;4987174;28;20046;-77
2023/03/05 08:33:49;;;;;;;5.32;0.77;;;6.00;99.90;;;;;;5002161;28;20317;-77
2023/03/05 08:36:15;;;;;;;3.80;1.00;;;5.90;99.90;;;;;;5002448;28;20029;-77
2023/03/05 08:38:43;;;;;;;3.55;1.00;;;5.90;99.90;;;;;;5015637;28;20104;-77
2023/03/05 08:41:09;;;;;;;2.33;0.93;;;6.20;99.90;;;;;;4985202;28;20045;-77
2023/03/05 08:43:35;;;;;;;6.28;1.52;;;6.30;99.90;;;;;;5002472;28;20022;-77
2023/03/05 08:46:01;;;;;;;3.38;1.00;;;6.60;99.90;;;;;;5019006;28;20390;-76
2023/03/05 08:48:28;;;;;;;4.47;0.95;;;6.50;99.90;;;;;;5002677;28;20194;-76
2023/03/05 08:50:55;;;;;;;3.03;0.93;;;6.50;99.90;;;;;;5002171;28;20040;-76
2023/03/05 08:53:21;;;;;;;4.53;0.70;;;6.70;99.90;;;;;;5024659;28;20072;-76
2023/03/05 08:55:54;;;;;;;8.07;1.15;;;6.60;99.90;;;;;;5002443;28;20100;-77
2023/03/05 08:58:20;;;;;;;6.25;0.90;;;6.40;99.90;;;;;;5001667;28;20209;-76
2023/03/05 09:00:46;;;;;;;5.60;1.00;;;6.50;99.90;;;;;;5016308;28;20085;-77
2023/03/05 09:03:12;;;;;;;2.80;0.77;;;6.50;99.90;;;;;;5007280;28;20038;-76
2023/03/05 09:05:38;;;;;;;4.97;0.77;;;6.40;99.90;;;;;;5001129;28;20049;-76
2023/03/05 09:08:03;;;;;;;4.72;0.73;;;6.50;99.90;;;;;;4983676;28;20029;-76
2023/03/05 09:10:29;;;;;;;4.07;0.80;;;6.60;99.90;;;;;;5001558;28;20048;-76
2023/03/05 09:12:55;;;;;;;3.83;0.60;;;6.90;99.90;;;;;;5016916;28;20072;-76
2023/03/05 09:15:23;;;;;;;4.43;0.82;;;6.60;99.90;;;;;;4982544;28;20025;-77
2023/03/05 09:17:49;;;;;;;4.25;0.85;;;6.40;99.90;;;;;;5002131;28;20332;-74
2023/03/05 09:20:15;;;;;;;3.55;1.17;;;6.60;99.90;;;;;;4992599;28;20101;-77
2023/03/05 09:22:41;;;;;;;2.50;0.90;;;6.60;99.90;;;;;;4997047;28;20101;-76
2023/03/05 09:25:09;;;;;;;3.55;0.82;;;6.20;99.90;;;;;;5009912;28;20340;-76
2023/03/05 09:27:36;;;;;;;5.90;1.00;;;6.40;99.90;;;;;;5017269;28;20212;-76
2023/03/05 09:30:03;;;;;;;4.13;0.65;;;6.60;99.90;;;;;;4999109;28;20213;-73
2023/03/05 09:32:29;;;;;;;1.40;0.55;;;6.50;99.90;;;;;;5017002;28;20141;-75
2023/03/05 09:34:55;;;;;;;3.90;0.80;;;6.80;99.90;;;;;;5033716;28;20033;-75
2023/03/05 09:37:21;;;;;;;3.67;0.55;;;6.80;99.90;;;;;;4985284;28;20584;-74
2023/03/05 09:39:46;;;;;;;2.03;0.80;;;6.80;99.90;;;;;;4983971;28;20173;-74
2023/03/05 09:42:43;;;;;;;2.78;0.60;;;7.10;99.90;;;;;;5017775;28;20047;-74
2023/03/05 09:45:17;;;;;;;2.40;1.00;;;7.10;99.90;;;;;;4997296;28;20027;-74
2023/03/05 09:47:54;;;;;;;2.45;0.88;;;7.30;99.90;;;;;;5000606;28;20037;-74
2023/03/05 09:50:38;;;;;;;4.63;0.80;;;7.40;99.90;;;;;;5017982;28;20096;-75
2023/03/05 09:53:29;;;;;;;2.97;0.60;;;7.70;99.90;;;;;;5016057;28;20315;-74
2023/03/05 09:56:03;;;;;;;1.42;0.70;;;7.80;99.90;;;;;;4998137;28;20129;-75
2023/03/05 09:58:50;;;;;;;2.63;0.70;;;8.20;99.90;;;;;;5005432;28;20088;-75
2023/03/05 10:01:20;;;;;;;2.00;1.00;;;8.30;99.90;;;;;;4999093;28;20042;-75
2023/03/05 10:03:56;;;;;;;2.13;0.80;;;7.60;99.90;;;;;;5027194;28;20455;-74
2023/03/05 10:06:47;;;;;;;3.53;0.73;;;7.20;99.90;;;;;;5003866;28;20068;-76
2023/03/05 10:09:44;;;;;;;1.02;0.50;;;7.00;99.90;;;;;;5004060;28;20046;-76
2023/03/05 10:12:37;;;;;;;2.38;0.80;;;6.90;99.90;;;;;;5006198;28;20038;-74
2023/03/05 10:15:34;;;;;;;1.98;1.00;;;6.80;99.90;;;;;;4984209;28;20186;-74
2023/03/05 10:18:10;;;;;;;2.22;0.73;;;6.70;99.90;;;;;;4997500;28;20069;-73
2023/03/05 10:20:51;;;;;;;4.03;1.10;;;6.90;99.90;;;;;;5003596;28;20077;-74
2023/03/05 10:23:51;;;;;;;2.30;0.60;;;7.30;99.90;;;;;;5020473;28;20077;-74
2023/03/05 10:26:35;;;;;;;4.78;0.75;;;7.20;99.90;;;;;;5020384;28;20038;-75
2023/03/05 10:29:25;;;;;;;2.47;0.55;;;7.30;99.90;;;;;;5027931;28;20041;-74
2023/03/05 10:32:05;;;;;;;3.22;0.65;;;7.30;99.90;;;;;;5035716;28;20034;-74
2023/03/05 10:34:51;;;;;;;1.55;0.82;;;7.30;99.90;;;;;;5020729;28;20324;-74
2023/03/05 10:37:35;;;;;;;2.38;0.50;;;7.50;99.90;;;;;;5012745;28;20042;-74
2023/03/05 10:40:08;;;;;;;4.53;0.90;;;7.50;99.90;;;;;;5005960;28;20050;-74
2023/03/05 10:43:10;;;;;;;1.48;0.60;;;7.40;99.90;;;;;;5003851;28;20229;-75
2023/03/05 10:45:43;;;;;;;4.60;0.77;;;7.50;99.90;;;;;;5024128;28;20050;-74
2023/03/05 10:48:39;;;;;;;0.77;0.57;;;7.50;99.90;;;;;;5019029;28;20052;-75
2023/03/05 10:51:18;;;;;;;2.38;0.85;;;7.40;99.90;;;;;;5036175;28;20046;-73
2023/03/05 10:53:54;;;;;;;2.85;0.70;;;7.40;99.90;;;;;;5000270;28;20104;-75
2023/03/05 10:56:25;;;;;;;3.63;1.15;;;7.40;99.90;;;;;;5002675;28;20030;-75
2023/03/05 10:58:52;;;;;;;1.73;0.60;;;8.50;99.90;;;;;;4997469;28;20057;-74
2023/03/05 11:01:28;;;;;;;7.32;0.95;;;7.80;99.90;;;;;;5009274;28;20380;-75
2023/03/05 11:04:05;;;;;;;4.88;0.85;;;7.80;99.90;;;;;;5016898;28;20280;-75
2023/03/05 11:06:44;;;;;;;1.85;0.60;;;7.70;99.90;;;;;;5000420;28;20038;-75
2023/03/05 11:09:31;;;;;;;6.10;0.80;;;7.40;99.90;;;;;;5020768;28;20093;-74
2023/03/05 11:12:07;;;;;;;3.83;0.90;;;7.60;99.90;;;;;;5035137;28;20037;-75
2023/03/05 11:14:36;;;;;;;3.17;0.70;;;7.90;99.90;;;;;;4990828;28;20052;-75
2023/03/05 11:17:44;;;;;;;3.53;1.33;;;8.40;99.90;;;;;;5024874;28;20109;-75
2023/03/05 11:20:29;;;;;;;2.58;0.85;;;8.80;99.90;;;;;;5026540;28;20391;-74
2023/03/05 11:23:10;;;;;;;3.80;0.90;;;8.70;99.90;;;;;;5019856;28;20088;-74
2023/03/05 11:25:52;;;;;;;4.22;0.80;;;8.60;99.90;;;;;;5016998;28;20045;-75
2023/03/05 11:28:31;;;;;;;3.65;1.00;;;8.20;99.90;;;;;;5003419;28;20041;-74
2023/03/05 11:31:03;;;;;;;4.53;1.05;;;7.90;99.90;;;;;;5001551;28;20034;-75
2023/03/05 11:33:34;;;;;;;3.38;0.70;;;7.70;99.90;;;;;;5019224;28;20080;-74
2023/03/05 11:36:32;;;;;;;2.53;0.60;;;7.50;99.90;;;;;;5014911;28;20026;-74
2023/03/05 11:39:10;;;;;;;2.53;0.90;;;7.40;99.90;;;;;;4999810;28;20053;-75
2023/03/05 11:41:54;;;;;;;1.40;0.52;;;7.50;99.90;;;;;;5019281;28;20129;-77
2023/03/05 11:44:49;;;;;;;4.15;0.80;;;7.50;99.90;;;;;;5022156;28;20052;-74
2023/03/05 11:47:48;;;;;;;1.60;0.55;;;7.40;99.90;;;;;;5001226;28;20045;-74
2023/03/05 11:50:16;;;;;;;2.95;0.73;;;7.30;99.90;;;;;;5011867;28;20385;-74
2023/03/05 11:52:52;;;;;;;3.38;0.65;;;7.50;99.90;;;;;;5016526;28;20042;-74
2023/03/05 11:55:31;;;;;;;3.83;0.95;;;8.00;99.90;;;;;;5021326;28;20041;-75
2023/03/05 11:58:17;;;;;;;1.77;0.60;;;8.00;99.90;;;;;;5016839;28;20030;-74
2023/03/05 12:00:45;;;;;;;4.70;0.70;;;7.60;99.90;;;;;;4999281;28;20034;-73
2023/03/05 12:03:15;;;;;;;2.58;0.50;;;7.70;99.90;;;;;;5003729;28;20052;-74
2023/03/05 12:05:44;;;;;;;3.15;0.80;;;7.60;99.90;;;;;;5018870;28;20236;-74
2023/03/05 12:08:18;;;;;;;3.97;0.77;;;7.40;99.90;;;;;;5019917;28;20044;-74
2023/03/05 12:10:44;;;;;;;1.98;0.85;;;7.40;99.90;;;;;;5017172;28;20046;-74
2023/03/05 12:13:22;;;;;;;5.30;0.82;;;7.10;99.90;;;;;;5003268;28;20112;-74
2023/03/05 12:16:09;;;;;;;3.47;1.23;;;7.20;99.90;;;;;;5000598;28;20033;-74
2023/03/05 12:18:53;;;;;;;4.88;1.25;;;7.30;99.90;;;;;;5018064;28;20038;-74
2023/03/05 12:21:49;;;;;;;3.38;0.93;;;7.50;99.90;;;;;;5016352;28;20033;-74
2023/03/05 12:24:24;;;;;;;2.47;1.15;;;7.80;99.90;;;;;;5000975;28;20041;-73
2023/03/05 12:27:02;;;;;;;4.35;0.70;;;8.30;99.90;;;;;;4998335;28;20052;-74
2023/03/05 12:29:42;;;;;;;1.50;0.60;;;8.10;99.90;;;;;;4999333;28;20045;-74
2023/03/05 12:32:32;;;;;;;3.20;0.75;;;7.80;99.90;;;;;;5017215;28;20041;-75
2023/03/05 12:35:18;;;;;;;4.07;0.85;;;7.80;99.90;;;;;;5019152;28;20091;-74
2023/03/05 12:37:43;;;;;;;;;;;8.10;99.90;;;;;;5019816;28;20046;-74
2023/03/05 12:40:25;;;;;;;3.20;0.90;;;7.80;99.90;;;;;;5018976;28;20148;-75
2023/03/05 12:43:02;;;;;;;4.25;0.88;;;7.50;99.90;;;;;;5028697;28;20033;-74
2023/03/05 12:45:39;;;;;;;2.78;1.08;;;7.10;99.90;;;;;;5016751;28;20076;-75
2023/03/05 12:48:10;;;;;;;14.05;1.23;;;7.10;99.90;;;;;;5001301;28;20412;-74
2023/03/05 12:50:36;;;;;;;3.10;0.70;;;7.60;99.90;;;;;;5001224;28;20080;-73
2023/03/05 12:53:14;;;;;;;5.68;0.98;;;7.70;99.90;;;;;;5021757;28;20030;-73
2023/03/05 12:56:09;;;;;;;4.65;1.20;;;7.80;99.90;;;;;;5016524;28;20112;-74
2023/03/05 12:58:45;;;;;;;2.17;0.45;;;7.80;99.90;;;;;;5009777;28;20060;-73
2023/03/05 13:01:29;;;;;;;2.97;0.90;;;7.50;99.90;;;;;;5013247;28;20034;-74
2023/03/05 13:04:10;;;;;;;2.70;0.60;;;7.20;99.90;;;;;;5018940;28;20115;-74
2023/03/05 13:06:38;;;;;;;3.30;0.80;;;8.00;99.90;;;;;;5002650;28;20053;-73
2023/03/05 13:12:32;;;;;;;4.50;0.77;;;8.70;99.90;;;;;;4996435;28;20049;-73
2023/03/05 13:15:16;;;;;;;2.88;0.93;;;8.90;99.90;;;;;;4997311;28;20097;-73
2023/03/05 13:18:09;;;;;;;2.35;0.77;;;8.80;99.90;;;;;;4998823;28;20069;-74
2023/03/05 13:20:49;;;;;;;2.50;0.60;;;8.70;99.90;;;;;;5015226;28;20072;-74